Liberia, Costa Rica

9:11 AM CST on December 07, 2016 (GMT -0600)
Sede de Guanacaste, Liberia | | Change Station

Elev 417 ft 10.62 °N, 85.46 °W | Updated 1 minute ago

Scattered Clouds
Scattered Clouds
83.8 °F
Feels Like 92 °F
N
3.0
Wind Variable Wind from East
Gusts 7.0 mph

Today
High -- | Low -- °F
--% Chance of Precip.
Yesterday
High -- | Low -- °F
Precip. -- in
Pressure 29.92 in
Visibility 6.2 miles
Clouds Few 3000 ft
Scattered Clouds 10000 ft
Heat Index 92 °F
Dew Point 75 °F
Humidity 75%
Rainfall 0.00 in
Snow Depth Not available.
5:47 AM 5:19 PM
First Quarter, 53% visible
METAR MRLB 071500Z 35003KT 9999 FEW030 SCT100 28/23 A2992 NOSIG
Pressure 29.92 in
Visibility 6.2 miles
Clouds Few 3000 ft
Scattered Clouds 10000 ft
Heat Index 92 °F
Dew Point 75 °F
Humidity 75%
Rainfall 0.00 in
Snow Depth Not available.
5:47 AM 5:19 PM
First Quarter, 53% visible
METAR MRLB 071500Z 35003KT 9999 FEW030 SCT100 28/23 A2992 NOSIG

10-Day Weather Forecast

No radar image for this location.
×

Almanac

Astronomy

Dec. 07, 2016 Rise Set
Actual Time
Civil Twilight
Nautical Twilight
Astronomical Twilight
Moon
Length of Visible Light
Length of Day
Tomorrow will be .
, % of the Moon is Illuminated

Today's Extremes

Country Highs Country Lows

Community

WunderPhotos

Upload Photos

1,956,118 photos uploaded!

WunderBlog® & News

Nearby

Air Quality

  Air Quality AQ Index Pollutant
Not available.

Snow Depth

Station Depth Elevation

Earthquake Activity

City Distance Mag. Time & Date
Minimum magnitude displayed is 2.5.

Coastal Water Temperatures

Place Temperature

Stations

Nearby Weather Stations

Station Location Temp. Windchill Dew Point Humidity Wind Precip. Elev Updated Type